Time;durP1;ratioP1;P1;durP2;ratioP2;P2;SDS_P1;SDS_P2;PMS_P1;PMS_P2;Temp;Humidity;BMP_temperature;BMP_pressure;BME280_temperature;BME280_humidity;BME280_pressure;Samples;Min_cycle;Max_cycle;Signal;HPM_P1;HPM_P2
2023/04/29 00:02:03;;;;;;;32.43;17.20;;;;;;;;;;5073360;28;20037;-80
2023/04/29 00:04:33;;;;;;;27.90;17.20;;;;;;;;;;5347083;23;20121;-82
2023/04/29 00:07:02;;;;;;;27.30;16.97;;;;;;;;;;5069722;28;20068;-82
2023/04/29 00:09:30;;;;;;;34.07;18.23;;;;;;;;;;5061462;28;20017;-80
2023/04/29 00:11:58;;;;;;;25.73;17.40;;;;;;;;;;5072180;28;20037;-81
2023/04/29 00:14:27;;;;;;;29.30;16.87;;;;;;;;;;5051411;28;20025;-82
2023/04/29 00:17:10;;;;;;;29.83;18.13;;;;;;;;;;5100316;27;20429;-81
2023/04/29 00:19:36;;;;;;;28.87;17.47;;;;;;;;;;5094711;28;20084;-80
2023/04/29 00:22:02;;;;;;;34.67;19.43;;;;;;;;;;5093227;28;20025;-81
2023/04/29 00:24:28;;;;;;;29.47;18.13;;;;;;;;;;5108776;27;20115;-81
2023/04/29 00:26:54;;;;;;;27.57;17.27;;;;;;;;;;5096316;28;20026;-81
2023/04/29 00:29:23;;;;;;;27.47;16.03;;;;;;;;;;5098927;28;20051;-81
2023/04/29 00:31:49;;;;;;;25.60;16.50;;;;;;;;;;5092328;28;20039;-81
2023/04/29 00:34:16;;;;;;;23.80;14.80;;;;;;;;;;5096606;28;20071;-81
2023/04/29 00:36:42;;;;;;;25.27;16.43;;;;;;;;;;5095121;28;20029;-80
2023/04/29 00:39:12;;;;;;;24.63;14.87;;;;;;;;;;5096870;28;20021;-81
2023/04/29 00:41:38;;;;;;;23.67;15.07;;;;;;;;;;5096319;28;20014;-82
2023/04/29 00:44:04;;;;;;;25.73;15.43;;;;;;;;;;5110178;27;20044;-82
2023/04/29 00:46:30;;;;;;;21.63;13.73;;;;;;;;;;5108127;27;20032;-81
2023/04/29 00:48:57;;;;;;;26.43;15.73;;;;;;;;;;5097178;28;20079;-82
2023/04/29 00:51:23;;;;;;;22.17;13.67;;;;;;;;;;5092617;28;20017;-80
2023/04/29 00:53:52;;;;;;;21.93;14.13;;;;;;;;;;5098053;28;20055;-81
2023/04/29 00:56:22;;;;;;;25.10;14.47;;;;;;;;;;5091441;28;20059;-81
2023/04/29 00:58:51;;;;;;;20.67;13.93;;;;;;;;;;5097167;28;20011;-81
2023/04/29 01:01:20;;;;;;;29.87;16.43;;;;;;;;;;5099649;28;20029;-81
2023/04/29 01:03:50;;;;;;;24.30;15.87;;;;;;;;;;5105190;27;20028;-81
2023/04/29 01:06:40;;;;;;;34.30;17.17;;;;;;;;;;5096655;28;20031;-80
2023/04/29 01:09:22;;;;;;;31.73;17.57;;;;;;;;;;5098154;28;20051;-80
2023/04/29 01:11:54;;;;;;;31.10;18.20;;;;;;;;;;5087529;28;20017;-80
2023/04/29 01:14:21;;;;;;;33.95;20.13;;;;;;;;;;5096932;28;20055;-79
2023/04/29 01:16:50;;;;;;;39.07;21.67;;;;;;;;;;5089163;28;20055;-80
2023/04/29 01:19:36;;;;;;;33.30;20.67;;;;;;;;;;5106777;27;20029;-79
2023/04/29 01:22:02;;;;;;;41.53;22.30;;;;;;;;;;5096475;28;20022;-80
2023/04/29 01:24:28;;;;;;;39.27;21.70;;;;;;;;;;5090921;28;20017;-80
2023/04/29 01:26:57;;;;;;;35.20;21.23;;;;;;;;;;5092237;28;20063;-80
2023/04/29 01:29:34;;;;;;;41.53;22.27;;;;;;;;;;5093929;28;20084;-80
2023/04/29 01:32:08;;;;;;;35.87;22.87;;;;;;;;;;5081559;28;20013;-80
2023/04/29 01:34:39;;;;;;;42.80;25.37;;;;;;;;;;5081590;28;20022;-79
2023/04/29 01:37:37;;;;;;;44.63;27.17;;;;;;;;;;5083993;28;20033;-80
2023/04/29 01:40:10;;;;;;;46.00;25.97;;;;;;;;;;5077283;28;20029;-80
2023/04/29 01:42:39;;;;;;;49.38;27.55;;;;;;;;;;5081541;28;20559;-81
2023/04/29 01:45:09;;;;;;;47.20;29.30;;;;;;;;;;5093393;28;20028;-80
2023/04/29 01:47:36;;;;;;;54.43;29.83;;;;;;;;;;5079254;28;20804;-79
2023/04/29 01:50:02;;;;;;;55.67;32.70;;;;;;;;;;5091061;28;20040;-80
2023/04/29 01:52:28;;;;;;;61.63;34.63;;;;;;;;;;5104024;22;20032;-80
2023/04/29 01:54:55;;;;;;;57.80;35.33;;;;;;;;;;5091069;28;20033;-80
2023/04/29 01:57:21;;;;;;;61.13;35.67;;;;;;;;;;5104064;28;20032;-81
2023/04/29 01:59:50;;;;;;;58.30;36.27;;;;;;;;;;5092381;28;20029;-80
2023/04/29 02:02:19;;;;;;;65.10;39.00;;;;;;;;;;5092544;28;20066;-80
2023/04/29 02:04:45;;;;;;;64.90;37.37;;;;;;;;;;5088995;28;20016;-79
2023/04/29 02:07:14;;;;;;;69.47;38.17;;;;;;;;;;5091015;28;20092;-80
2023/04/29 02:09:42;;;;;;;68.77;39.83;;;;;;;;;;5090501;28;20033;-80
2023/04/29 02:12:08;;;;;;;68.33;39.37;;;;;;;;;;5093050;28;20016;-80
2023/04/29 02:14:35;;;;;;;74.13;41.53;;;;;;;;;;5091809;28;20463;-80
2023/04/29 02:17:01;;;;;;;75.40;42.60;;;;;;;;;;5093462;28;20054;-81
2023/04/29 02:19:27;;;;;;;70.90;39.03;;;;;;;;;;5088369;28;20041;-79
2023/04/29 02:21:53;;;;;;;80.47;42.73;;;;;;;;;;5088989;28;20106;-80
2023/04/29 02:24:24;;;;;;;72.80;40.97;;;;;;;;;;5109073;28;20021;-80
2023/04/29 02:26:50;;;;;;;75.10;43.43;;;;;;;;;;5086557;28;20075;-80
2023/04/29 02:29:19;;;;;;;83.40;45.47;;;;;;;;;;5105004;28;20024;-81
2023/04/29 02:31:47;;;;;;;94.43;49.33;;;;;;;;;;5092716;28;20031;-80
2023/04/29 02:34:15;;;;;;;96.00;48.67;;;;;;;;;;5092630;28;20013;-79
2023/04/29 02:36:41;;;;;;;104.93;51.37;;;;;;;;;;5092486;28;20059;-80
2023/04/29 02:39:07;;;;;;;99.43;48.20;;;;;;;;;;5088462;28;20059;-80
2023/04/29 02:41:34;;;;;;;108.07;50.20;;;;;;;;;;5089322;28;20043;-80
2023/04/29 02:44:00;;;;;;;107.47;50.30;;;;;;;;;;5091688;28;20048;-79
2023/04/29 02:46:26;;;;;;;116.63;54.97;;;;;;;;;;5086833;28;20028;-79
2023/04/29 02:48:54;;;;;;;121.00;55.40;;;;;;;;;;5092247;28;20046;-80
2023/04/29 02:51:20;;;;;;;126.53;54.63;;;;;;;;;;5101699;28;21157;-80
2023/04/29 02:53:46;;;;;;;117.27;55.23;;;;;;;;;;5093017;28;20048;-80
2023/04/29 02:56:12;;;;;;;116.23;55.47;;;;;;;;;;5092413;28;20037;-79
2023/04/29 02:58:38;;;;;;;117.67;57.60;;;;;;;;;;5109433;28;20041;-79
2023/04/29 03:01:04;;;;;;;130.73;60.43;;;;;;;;;;5091519;28;20102;-79
2023/04/29 03:03:30;;;;;;;127.43;59.37;;;;;;;;;;5091606;28;20055;-80
2023/04/29 03:05:56;;;;;;;137.10;59.60;;;;;;;;;;5095439;28;20020;-80
2023/04/29 03:08:25;;;;;;;146.87;66.33;;;;;;;;;;5092098;28;20012;-80
2023/04/29 03:10:51;;;;;;;151.43;63.83;;;;;;;;;;5101934;28;20036;-80
2023/04/29 03:13:20;;;;;;;161.47;66.27;;;;;;;;;;5094844;28;20012;-79
2023/04/29 03:15:46;;;;;;;182.90;75.23;;;;;;;;;;5091511;28;20108;-80
2023/04/29 03:18:12;;;;;;;202.43;70.07;;;;;;;;;;5092327;28;20040;-79
2023/04/29 03:20:38;;;;;;;181.83;76.90;;;;;;;;;;5089156;28;20028;-80
2023/04/29 03:23:04;;;;;;;203.33;71.73;;;;;;;;;;5088397;28;20032;-79
2023/04/29 03:25:31;;;;;;;221.40;79.93;;;;;;;;;;5088297;28;20079;-79
2023/04/29 03:27:57;;;;;;;211.90;74.03;;;;;;;;;;5090761;28;20032;-80
2023/04/29 03:30:23;;;;;;;244.83;82.17;;;;;;;;;;5090987;28;20108;-79
2023/04/29 03:32:49;;;;;;;301.87;91.87;;;;;;;;;;5103114;28;20021;-80
2023/04/29 03:35:15;;;;;;;268.33;84.83;;;;;;;;;;5087751;28;20048;-80
2023/04/29 03:37:43;;;;;;;320.53;86.40;;;;;;;;;;5101465;28;20047;-80
2023/04/29 03:40:09;;;;;;;315.20;79.37;;;;;;;;;;5091385;28;20092;-80
2023/04/29 03:42:36;;;;;;;366.30;89.30;;;;;;;;;;5091704;28;20044;-80
2023/04/29 03:45:02;;;;;;;365.03;84.17;;;;;;;;;;5089523;28;20021;-80
2023/04/29 03:47:30;;;;;;;409.40;94.73;;;;;;;;;;5091987;28;20076;-80
2023/04/29 03:49:56;;;;;;;408.97;92.87;;;;;;;;;;5140494;22;20041;-80
2023/04/29 03:52:25;;;;;;;398.17;94.87;;;;;;;;;;5093007;28;20095;-80
2023/04/29 03:54:53;;;;;;;413.73;89.23;;;;;;;;;;5092353;28;20117;-81
2023/04/29 03:57:19;;;;;;;407.17;99.67;;;;;;;;;;5092860;28;20093;-80
2023/04/29 03:59:49;;;;;;;402.80;89.60;;;;;;;;;;5097179;28;20083;-80
2023/04/29 04:02:15;;;;;;;340.13;82.77;;;;;;;;;;5095775;28;20050;-81
2023/04/29 04:04:41;;;;;;;331.67;83.57;;;;;;;;;;5091592;28;20044;-80
2023/04/29 04:07:07;;;;;;;359.43;79.17;;;;;;;;;;5094246;28;20032;-80
2023/04/29 04:09:36;;;;;;;343.57;78.20;;;;;;;;;;5092925;28;20020;-80
2023/04/29 04:12:02;;;;;;;289.40;82.07;;;;;;;;;;5092433;28;20032;-80
2023/04/29 04:14:29;;;;;;;304.00;76.53;;;;;;;;;;5094171;28;20084;-80
2023/04/29 04:16:55;;;;;;;319.00;72.13;;;;;;;;;;5092755;28;20087;-80
2023/04/29 04:19:21;;;;;;;327.73;72.43;;;;;;;;;;5093918;28;20105;-80
2023/04/29 04:21:49;;;;;;;352.70;83.03;;;;;;;;;;5094265;28;20042;-80
2023/04/29 04:24:15;;;;;;;295.47;76.50;;;;;;;;;;5092560;28;20029;-80
2023/04/29 04:26:41;;;;;;;285.63;78.20;;;;;;;;;;5097262;28;20069;-80
2023/04/29 04:29:09;;;;;;;336.27;81.33;;;;;;;;;;5096273;28;20016;-80
2023/04/29 04:31:35;;;;;;;325.57;78.30;;;;;;;;;;5095647;28;20021;-80
2023/04/29 04:34:01;;;;;;;337.63;81.00;;;;;;;;;;5091657;28;20052;-81
2023/04/29 04:36:27;;;;;;;318.37;77.63;;;;;;;;;;5096118;28;20060;-80
2023/04/29 04:38:56;;;;;;;295.00;82.10;;;;;;;;;;5092120;28;20024;-80
2023/04/29 04:41:22;;;;;;;286.87;78.50;;;;;;;;;;5093067;28;20085;-80
2023/04/29 04:43:48;;;;;;;321.73;78.37;;;;;;;;;;5094859;28;20009;-81
2023/04/29 04:46:14;;;;;;;317.73;78.53;;;;;;;;;;5094416;28;20040;-80
2023/04/29 04:48:40;;;;;;;317.50;81.03;;;;;;;;;;5095201;28;20028;-80
2023/04/29 04:51:10;;;;;;;323.00;80.13;;;;;;;;;;5094096;28;20026;-80
2023/04/29 04:53:38;;;;;;;299.93;78.70;;;;;;;;;;5094726;28;20039;-81
2023/04/29 04:56:05;;;;;;;316.83;74.87;;;;;;;;;;5092289;28;20032;-81
2023/04/29 04:58:31;;;;;;;329.30;80.67;;;;;;;;;;5094820;28;20013;-81
2023/04/29 05:01:00;;;;;;;319.00;75.33;;;;;;;;;;5093101;28;20074;-81
2023/04/29 05:03:26;;;;;;;338.57;80.07;;;;;;;;;;5097379;28;20020;-80
2023/04/29 05:05:53;;;;;;;275.53;71.10;;;;;;;;;;5096458;28;20013;-81
2023/04/29 05:08:19;;;;;;;252.90;68.07;;;;;;;;;;5102910;28;20011;-81
2023/04/29 05:10:52;;;;;;;234.27;63.97;;;;;;;;;;5096532;28;20058;-81
2023/04/29 05:13:19;;;;;;;217.77;60.50;;;;;;;;;;5100179;28;20032;-81
2023/04/29 05:15:45;;;;;;;233.67;60.37;;;;;;;;;;5098724;28;20024;-80
2023/04/29 05:18:11;;;;;;;225.33;57.10;;;;;;;;;;5092631;28;20004;-81
2023/04/29 05:20:37;;;;;;;244.37;61.00;;;;;;;;;;5098956;28;20016;-81
2023/04/29 05:23:14;;;;;;;235.93;63.83;;;;;;;;;;5097783;28;20220;-81
2023/04/29 05:25:40;;;;;;;202.50;59.80;;;;;;;;;;5100897;28;20017;-80
2023/04/29 05:28:06;;;;;;;204.17;57.63;;;;;;;;;;5097594;28;20145;-80
2023/04/29 05:30:33;;;;;;;190.70;59.30;;;;;;;;;;5093038;28;20025;-79
2023/04/29 05:32:59;;;;;;;233.53;62.27;;;;;;;;;;5097971;28;20008;-81
2023/04/29 05:35:25;;;;;;;195.97;58.87;;;;;;;;;;5096179;28;20062;-80
2023/04/29 05:37:51;;;;;;;179.63;56.80;;;;;;;;;;5093834;28;20025;-80
2023/04/29 05:40:22;;;;;;;167.00;55.30;;;;;;;;;;5097992;28;20093;-80
2023/04/29 05:42:48;;;;;;;156.20;50.07;;;;;;;;;;5095317;28;20032;-81
2023/04/29 05:45:18;;;;;;;127.63;45.50;;;;;;;;;;5094035;28;20044;-81
2023/04/29 05:47:44;;;;;;;131.37;46.07;;;;;;;;;;5094555;28;20001;-80
2023/04/29 05:50:11;;;;;;;110.03;43.37;;;;;;;;;;5095919;28;20028;-81
2023/04/29 05:52:39;;;;;;;119.67;42.93;;;;;;;;;;5093894;28;20009;-81
2023/04/29 05:55:13;;;;;;;112.47;42.77;;;;;;;;;;5098569;28;20036;-80
2023/04/29 05:57:39;;;;;;;114.93;40.97;;;;;;;;;;5097379;28;20013;-81
2023/04/29 06:00:05;;;;;;;119.27;39.83;;;;;;;;;;5094281;28;20021;-81
2023/04/29 06:02:32;;;;;;;102.40;40.13;;;;;;;;;;5112656;28;20061;-80
2023/04/29 06:04:58;;;;;;;94.10;35.50;;;;;;;;;;5100110;28;20025;-80
2023/04/29 06:07:26;;;;;;;84.17;33.07;;;;;;;;;;5098126;28;20013;-80
2023/04/29 06:09:52;;;;;;;80.67;35.67;;;;;;;;;;5101523;28;20012;-82
2023/04/29 06:12:18;;;;;;;81.57;34.50;;;;;;;;;;5096594;28;20085;-81
2023/04/29 06:14:44;;;;;;;73.40;33.83;;;;;;;;;;5094335;28;20016;-80
2023/04/29 06:17:11;;;;;;;81.40;34.57;;;;;;;;;;5096490;28;20047;-80
2023/04/29 06:19:37;;;;;;;76.77;33.60;;;;;;;;;;5099737;28;20020;-81
2023/04/29 06:22:03;;;;;;;74.53;32.83;;;;;;;;;;5095997;28;20017;-80
2023/04/29 06:24:29;;;;;;;79.47;35.53;;;;;;;;;;5098112;28;20017;-81
2023/04/29 06:26:55;;;;;;;83.63;35.20;;;;;;;;;;5095122;28;20021;-80
2023/04/29 06:29:21;;;;;;;68.10;33.53;;;;;;;;;;5099016;28;20043;-80
2023/04/29 06:31:47;;;;;;;72.47;32.87;;;;;;;;;;5094908;28;20020;-81
2023/04/29 06:34:17;;;;;;;71.87;34.40;;;;;;;;;;5100017;28;20020;-80
2023/04/29 06:36:48;;;;;;;75.37;34.93;;;;;;;;;;5099551;28;20031;-80
2023/04/29 06:39:16;;;;;;;72.40;32.87;;;;;;;;;;5097984;28;20096;-80
2023/04/29 06:41:48;;;;;;;69.27;32.20;;;;;;;;;;5096363;28;20063;-80
2023/04/29 06:44:16;;;;;;;64.77;31.47;;;;;;;;;;5097672;28;20029;-80
2023/04/29 06:46:42;;;;;;;62.77;33.10;;;;;;;;;;5098321;28;20031;-80
2023/04/29 06:49:13;;;;;;;62.73;32.60;;;;;;;;;;5095288;28;20043;-81
2023/04/29 06:51:41;;;;;;;66.70;34.27;;;;;;;;;;5094604;28;20016;-80
2023/04/29 06:54:10;;;;;;;72.87;34.87;;;;;;;;;;5094922;28;20036;-81
2023/04/29 06:56:38;;;;;;;75.00;33.20;;;;;;;;;;5094921;28;20036;-80
2023/04/29 06:59:09;;;;;;;85.17;34.87;;;;;;;;;;5094229;28;20020;-79
2023/04/29 07:01:35;;;;;;;80.93;35.33;;;;;;;;;;5096248;28;20020;-81
2023/04/29 07:04:01;;;;;;;67.23;33.03;;;;;;;;;;5098192;28;20276;-80
2023/04/29 07:06:28;;;;;;;56.00;28.40;;;;;;;;;;5098696;28;20028;-80
2023/04/29 07:08:54;;;;;;;51.77;29.20;;;;;;;;;;5093007;28;20028;-80
2023/04/29 07:11:26;;;;;;;48.57;27.70;;;;;;;;;;5235589;22;20044;-80
2023/04/29 07:13:59;;;;;;;56.75;30.60;;;;;;;;;;5364041;23;20039;-80
2023/04/29 07:16:26;;;;;;;54.07;29.30;;;;;;;;;;5094832;28;20054;-80
2023/04/29 07:18:53;;;;;;;49.27;26.87;;;;;;;;;;5089882;28;20096;-80
2023/04/29 07:21:19;;;;;;;50.53;27.90;;;;;;;;;;5090054;28;20050;-80
2023/04/29 07:23:45;;;;;;;48.80;26.80;;;;;;;;;;5215455;22;20040;-80
2023/04/29 07:26:14;;;;;;;49.60;27.00;;;;;;;;;;5070126;28;20109;-80
2023/04/29 07:28:41;;;;;;;52.53;25.43;;;;;;;;;;5071360;28;20029;-80
2023/04/29 07:31:07;;;;;;;45.10;25.10;;;;;;;;;;5067749;28;20020;-79
2023/04/29 07:33:33;;;;;;;45.90;26.40;;;;;;;;;;5083802;28;20025;-81
2023/04/29 07:35:59;;;;;;;48.37;25.67;;;;;;;;;;5256758;22;20044;-80
2023/04/29 07:38:25;;;;;;;43.37;25.97;;;;;;;;;;5231510;23;20016;-80
2023/04/29 07:41:09;;;;;;;45.43;25.33;;;;;;;;;;5215550;22;20043;-80
2023/04/29 07:43:38;;;;;;;39.20;23.40;;;;;;;;;;4975443;28;20178;-80
2023/04/29 07:46:04;;;;;;;40.13;23.17;;;;;;;;;;5370781;22;20035;-81
2023/04/29 07:48:30;;;;;;;38.47;23.87;;;;;;;;;;5115210;28;20008;-80
2023/04/29 07:50:56;;;;;;;35.03;21.20;;;;;;;;;;5108973;28;20058;-80
2023/04/29 07:53:26;;;;;;;31.80;21.17;;;;;;;;;;5109528;28;20036;-80
2023/04/29 07:55:52;;;;;;;32.90;19.67;;;;;;;;;;5108642;28;20048;-80
2023/04/29 07:58:18;;;;;;;34.13;19.70;;;;;;;;;;5109128;28;20012;-80
2023/04/29 08:00:44;;;;;;;32.20;20.37;;;;;;;;;;5112411;28;20028;-81
2023/04/29 08:03:16;;;;;;;30.13;18.13;;;;;;;;;;5270193;22;20044;-81
2023/04/29 08:05:47;;;;;;;32.75;19.15;;;;;;;;;;5085620;28;20017;-81
2023/04/29 08:08:14;;;;;;;35.57;21.07;;;;;;;;;;5115002;22;20029;-81
2023/04/29 08:11:08;;;;;;;29.10;18.40;;;;;;;;;;5068377;28;20045;-80
2023/04/29 08:13:34;;;;;;;30.43;19.53;;;;;;;;;;5084901;28;20074;-81
2023/04/29 08:16:02;;;;;;;30.83;18.93;;;;;;;;;;5062517;28;20143;-81
2023/04/29 08:18:31;;;;;;;29.53;18.43;;;;;;;;;;5075349;28;20039;-80
2023/04/29 08:21:00;;;;;;;29.60;19.47;;;;;;;;;;5067835;28;20052;-80
2023/04/29 08:23:26;;;;;;;32.53;19.40;;;;;;;;;;5086008;28;20041;-80
2023/04/29 08:25:54;;;;;;;33.93;18.00;;;;;;;;;;5069478;28;20020;-80
2023/04/29 08:28:21;;;;;;;31.57;18.60;;;;;;;;;;5070525;28;20100;-81
2023/04/29 08:30:47;;;;;;;30.97;18.90;;;;;;;;;;5084557;28;20665;-80
2023/04/29 08:33:16;;;;;;;31.53;18.77;;;;;;;;;;5063809;28;20025;-81
2023/04/29 08:35:44;;;;;;;30.73;17.40;;;;;;;;;;5088778;28;20059;-80
2023/04/29 08:38:13;;;;;;;31.27;18.80;;;;;;;;;;5071049;28;20031;-79
2023/04/29 08:40:57;;;;;;;27.33;17.20;;;;;;;;;;5095107;28;20009;-79
2023/04/29 08:43:39;;;;;;;26.47;16.53;;;;;;;;;;5077515;28;20013;-81
2023/04/29 08:46:07;;;;;;;24.45;15.98;;;;;;;;;;5069930;28;20017;-78
2023/04/29 08:48:36;;;;;;;28.53;16.60;;;;;;;;;;5072452;28;20012;-80
2023/04/29 08:51:03;;;;;;;26.83;16.43;;;;;;;;;;5072331;28;20297;-80
2023/04/29 08:53:29;;;;;;;26.87;15.50;;;;;;;;;;5094094;28;20041;-80
2023/04/29 08:55:59;;;;;;;22.50;15.63;;;;;;;;;;5076405;28;20036;-80
2023/04/29 08:58:30;;;;;;;23.53;15.23;;;;;;;;;;5076279;28;20009;-81
2023/04/29 09:00:59;;;;;;;23.47;15.10;;;;;;;;;;5075016;28;20052;-81
2023/04/29 09:03:49;;;;;;;22.33;15.30;;;;;;;;;;5069588;28;20032;-80
2023/04/29 09:06:15;;;;;;;25.53;15.03;;;;;;;;;;5075267;28;20040;-80
2023/04/29 09:08:41;;;;;;;24.43;15.40;;;;;;;;;;5144267;22;20033;-80
2023/04/29 09:11:11;;;;;;;24.60;15.63;;;;;;;;;;5070163;28;20021;-80
2023/04/29 09:13:44;;;;;;;24.63;14.67;;;;;;;;;;5068903;28;20039;-80
2023/04/29 09:16:13;;;;;;;21.30;15.13;;;;;;;;;;5071324;28;20034;-81
2023/04/29 09:18:56;;;;;;;26.17;14.40;;;;;;;;;;5084207;28;20029;-82
2023/04/29 09:21:23;;;;;;;25.43;15.40;;;;;;;;;;5083427;28;20037;-80
2023/04/29 09:23:53;;;;;;;22.00;14.57;;;;;;;;;;5073920;28;20029;-81
2023/04/29 09:26:25;;;;;;;22.53;13.97;;;;;;;;;;5074946;28;20168;-80
2023/04/29 09:29:15;;;;;;;22.10;15.82;;;;;;;;;;5078520;28;20060;-80
2023/04/29 09:32:00;;;;;;;22.07;14.07;;;;;;;;;;5063976;28;20044;-80
2023/04/29 09:34:39;;;;;;;18.93;12.93;;;;;;;;;;5071441;28;20040;-81
2023/04/29 09:37:22;;;;;;;21.80;14.57;;;;;;;;;;5081150;28;20063;-80
2023/04/29 09:39:58;;;;;;;18.90;12.23;;;;;;;;;;5080751;28;20033;-81
2023/04/29 09:42:53;;;;;;;22.00;14.90;;;;;;;;;;5077668;28;20319;-79
2023/04/29 09:45:54;;;;;;;23.50;14.17;;;;;;;;;;5064486;28;20028;-80
2023/04/29 09:48:42;;;;;;;;;;;;;;;;;;;;;
2023/04/29 09:51:16;;;;;;;20.50;14.03;;;;;;;;;;5064649;28;20044;-80
2023/04/29 09:53:47;;;;;;;22.30;14.10;;;;;;;;;;5071268;28;20029;-80
2023/04/29 09:56:22;;;;;;;26.20;15.53;;;;;;;;;;5066031;28;20026;-80
2023/04/29 09:58:56;;;;;;;26.13;15.80;;;;;;;;;;5076717;28;20009;-80
2023/04/29 10:01:23;;;;;;;23.33;14.97;;;;;;;;;;5063400;28;20053;-80
2023/04/29 10:03:52;;;;;;;19.87;13.30;;;;;;;;;;5060977;28;20047;-80
2023/04/29 10:06:22;;;;;;;23.97;15.20;;;;;;;;;;5079209;28;20029;-81
2023/04/29 10:08:51;;;;;;;31.37;17.43;;;;;;;;;;5080140;28;20111;-80
2023/04/29 10:11:17;;;;;;;26.70;17.43;;;;;;;;;;5067104;28;20036;-80
2023/04/29 10:13:43;;;;;;;27.13;17.97;;;;;;;;;;5061993;28;20097;-83
2023/04/29 10:16:36;;;;;;;26.83;17.50;;;;;;;;;;5075106;28;20036;-79
2023/04/29 10:19:14;;;;;;;22.73;15.20;;;;;;;;;;5061862;28;20032;-80
2023/04/29 10:21:45;;;;;;;27.13;18.63;;;;;;;;;;5081967;28;20025;-80
2023/04/29 10:24:15;;;;;;;26.60;18.00;;;;;;;;;;5062283;28;20018;-79
2023/04/29 10:26:41;;;;;;;25.83;17.57;;;;;;;;;;5071331;28;20316;-80
2023/04/29 10:29:13;;;;;;;25.63;17.03;;;;;;;;;;5074091;28;20085;-80
2023/04/29 10:31:41;;;;;;;26.33;17.63;;;;;;;;;;5061775;28;20025;-80
2023/04/29 10:34:13;;;;;;;32.20;17.30;;;;;;;;;;5063589;28;20013;-79
2023/04/29 10:36:42;;;;;;;32.10;18.77;;;;;;;;;;5075369;28;20079;-80
2023/04/29 10:39:17;;;;;;;32.07;19.73;;;;;;;;;;5072670;28;20025;-80
2023/04/29 10:41:46;;;;;;;32.67;21.37;;;;;;;;;;5072400;28;20025;-81
2023/04/29 10:44:15;;;;;;;43.27;24.10;;;;;;;;;;5075039;28;20012;-81
2023/04/29 10:46:43;;;;;;;46.03;25.87;;;;;;;;;;5073872;28;20017;-81
2023/04/29 10:49:10;;;;;;;44.33;26.50;;;;;;;;;;5075332;28;20029;-80
2023/04/29 10:51:48;;;;;;;44.33;28.00;;;;;;;;;;5060821;28;20033;-81
2023/04/29 10:54:24;;;;;;;53.47;27.10;;;;;;;;;;5072337;28;20025;-80
2023/04/29 10:56:56;;;;;;;48.03;29.03;;;;;;;;;;5071904;28;20051;-81
2023/04/29 10:59:30;;;;;;;46.00;28.17;;;;;;;;;;5061965;28;20041;-81
2023/04/29 11:02:06;;;;;;;;;;;;;;;;;;;;;
2023/04/29 11:04:32;;;;;;;45.77;26.33;;;;;;;;;;5068830;28;20041;-80
2023/04/29 11:06:58;;;;;;;47.80;27.60;;;;;;;;;;5065447;28;20054;-80
2023/04/29 11:09:29;;;;;;;51.10;27.17;;;;;;;;;;5069366;28;20049;-80
2023/04/29 11:12:02;;;;;;;50.77;28.33;;;;;;;;;;5071829;28;20034;-80
2023/04/29 11:14:41;;;;;;;49.30;29.73;;;;;;;;;;5074537;28;20045;-80
2023/04/29 11:17:09;;;;;;;44.63;26.57;;;;;;;;;;5074275;28;20029;-81
2023/04/29 11:19:36;;;;;;;51.47;28.87;;;;;;;;;;5071636;28;20025;-80
2023/04/29 11:22:22;;;;;;;50.10;29.50;;;;;;;;;;5079551;28;20033;-80
2023/04/29 11:25:05;;;;;;;43.53;27.67;;;;;;;;;;5065880;28;20033;-79
2023/04/29 11:27:47;;;;;;;52.72;29.58;;;;;;;;;;5076489;28;20013;-80
2023/04/29 11:30:16;;;;;;;;;;;;;;;;;;5062215;28;20056;-80
2023/04/29 11:32:44;;;;;;;83.50;46.67;;;;;;;;;;5073123;28;19909;-80
2023/04/29 11:35:13;;;;;;;102.37;55.37;;;;;;;;;;5065115;28;20004;-80
2023/04/29 11:37:44;;;;;;;109.90;60.73;;;;;;;;;;5065687;28;20026;-80
2023/04/29 11:40:12;;;;;;;113.57;62.83;;;;;;;;;;5079385;28;20022;-80
2023/04/29 11:45:21;;;;;;;106.30;59.28;;;;;;;;;;5051265;28;20021;-80
2023/04/29 11:47:50;;;;;;;98.93;53.73;;;;;;;;;;5036359;28;20025;-80
2023/04/29 11:50:18;;;;;;;104.77;58.13;;;;;;;;;;5035304;28;20005;-81
2023/04/29 11:52:48;;;;;;;118.37;66.37;;;;;;;;;;5030946;28;20065;-81
2023/04/29 11:55:21;;;;;;;113.20;62.80;;;;;;;;;;5037389;28;20002;-81
2023/04/29 11:57:50;;;;;;;111.70;61.90;;;;;;;;;;5036778;28;19998;-80
2023/04/29 12:00:20;;;;;;;121.37;66.77;;;;;;;;;;5048986;28;19998;-81
2023/04/29 12:02:47;;;;;;;124.53;68.20;;;;;;;;;;5030533;28;21515;-81
2023/04/29 12:05:30;;;;;;;113.00;65.93;;;;;;;;;;5029697;28;20018;-81
2023/04/29 12:07:56;;;;;;;109.27;62.67;;;;;;;;;;5033217;28;20022;-81
2023/04/29 12:10:35;;;;;;;117.87;67.10;;;;;;;;;;5032776;28;20044;-81
2023/04/29 12:13:10;;;;;;;120.40;72.13;;;;;;;;;;5029405;28;20033;-80
2023/04/29 12:15:45;;;;;;;113.50;67.70;;;;;;;;;;5035326;28;20084;-81
2023/04/29 12:18:17;;;;;;;106.63;65.67;;;;;;;;;;5031966;28;20155;-80
2023/04/29 12:20:50;;;;;;;102.15;61.63;;;;;;;;;;5032058;28;20045;-80
2023/04/29 12:23:21;;;;;;;105.57;64.47;;;;;;;;;;5030442;28;20021;-80
2023/04/29 12:26:05;;;;;;;108.17;63.63;;;;;;;;;;5031197;28;20037;-81
2023/04/29 12:28:34;;;;;;;102.10;63.67;;;;;;;;;;5029578;28;20024;-80
2023/04/29 12:31:20;;;;;;;98.27;60.47;;;;;;;;;;5029263;28;20050;-79
2023/04/29 12:33:51;;;;;;;105.70;61.63;;;;;;;;;;5030202;28;20078;-80
2023/04/29 12:36:20;;;;;;;90.37;56.40;;;;;;;;;;5027693;28;20025;-80
2023/04/29 12:38:54;;;;;;;92.40;59.57;;;;;;;;;;5045370;28;20434;-80
2023/04/29 12:41:43;;;;;;;90.00;57.03;;;;;;;;;;5046108;28;20038;-80
2023/04/29 12:44:11;;;;;;;83.70;52.57;;;;;;;;;;5030539;28;20018;-80
2023/04/29 12:46:38;;;;;;;73.67;46.37;;;;;;;;;;5028912;28;20026;-80
2023/04/29 12:49:20;;;;;;;;;;;;;;;;;;;;;
2023/04/29 12:51:49;;;;;;;52.63;34.17;;;;;;;;;;5046334;28;20048;-79
2023/04/29 12:54:17;;;;;;;60.03;34.50;;;;;;;;;;5029848;28;20349;-79
2023/04/29 12:56:51;;;;;;;52.10;34.60;;;;;;;;;;5077498;22;20051;-82
2023/04/29 12:59:21;;;;;;;50.87;34.47;;;;;;;;;;5068000;28;20072;-79
2023/04/29 13:01:47;;;;;;;47.37;32.87;;;;;;;;;;5067543;28;20013;-80
2023/04/29 13:04:13;;;;;;;42.50;30.30;;;;;;;;;;5069182;28;20040;-80
2023/04/29 13:06:57;;;;;;;46.80;28.83;;;;;;;;;;5054824;28;20013;-81
2023/04/29 13:09:26;;;;;;;38.27;27.30;;;;;;;;;;5069945;28;20033;-80
2023/04/29 13:11:54;;;;;;;42.60;26.80;;;;;;;;;;5049095;28;20025;-80
2023/04/29 13:19:46;;;;;;;43.60;27.87;;;;;;;;;;5107039;28;20097;-80
2023/04/29 13:22:15;;;;;;;38.17;24.37;;;;;;;;;;5092904;28;20263;-79
2023/04/29 13:24:41;;;;;;;39.27;26.97;;;;;;;;;;5094144;28;20028;-79
2023/04/29 13:27:10;;;;;;;38.63;27.10;;;;;;;;;;5094344;28;20038;-80
2023/04/29 13:29:36;;;;;;;39.17;24.45;;;;;;;;;;5092220;28;20046;-79
2023/04/29 13:32:02;;;;;;;44.83;27.63;;;;;;;;;;5093088;28;20024;-78
2023/04/29 13:34:30;;;;;;;39.97;25.83;;;;;;;;;;5092354;28;20045;-80
2023/04/29 13:37:02;;;;;;;35.60;25.48;;;;;;;;;;5110044;28;20044;-79
2023/04/29 13:39:33;;;;;;;33.03;22.40;;;;;;;;;;5095885;28;20021;-79
2023/04/29 13:42:07;;;;;;;36.08;24.63;;;;;;;;;;5093576;28;20580;-79
2023/04/29 13:44:34;;;;;;;31.05;21.00;;;;;;;;;;5093139;28;20028;-80
2023/04/29 13:47:00;;;;;;;32.75;20.98;;;;;;;;;;5093519;28;20100;-79
2023/04/29 13:49:26;;;;;;;33.35;23.63;;;;;;;;;;5093182;28;20016;-80
2023/04/29 13:54:32;;;;;;;30.88;20.60;;;;;;;;;;5183047;22;20048;-80
2023/04/29 13:57:04;;;;;;;31.55;20.92;;;;;;;;;;5079988;28;20048;-81
2023/04/29 13:59:49;;;;;;;31.95;21.30;;;;;;;;;;5078608;28;20016;-80
2023/04/29 14:02:18;;;;;;;31.40;21.80;;;;;;;;;;5076489;28;20026;-80
2023/04/29 14:04:51;;;;;;;30.88;20.55;;;;;;;;;;5096721;28;20096;-79
2023/04/29 14:07:23;;;;;;;33.13;22.38;;;;;;;;;;5078926;28;20012;-81
2023/04/29 14:09:49;;;;;;;32.50;23.20;;;;;;;;;;5091763;28;20027;-80
2023/04/29 14:12:18;;;;;;;34.58;22.40;;;;;;;;;;5088330;23;20048;-80
2023/04/29 14:14:44;;;;;;;26.55;20.65;;;;;;;;;;5073150;28;20009;-82
2023/04/29 14:17:20;;;;;;;30.08;21.35;;;;;;;;;;5073205;28;20041;-82
2023/04/29 14:19:46;;;;;;;32.13;22.60;;;;;;;;;;5070818;28;20017;-83
2023/04/29 14:22:12;;;;;;;32.25;23.23;;;;;;;;;;5073089;28;20021;-83
2023/04/29 14:24:38;;;;;;;37.10;24.67;;;;;;;;;;5071799;28;20031;-83
2023/04/29 14:27:14;;;;;;;32.85;23.45;;;;;;;;;;5072245;28;20032;-82
2023/04/29 14:29:42;;;;;;;31.30;22.83;;;;;;;;;;5074083;28;20024;-81
2023/04/29 14:32:08;;;;;;;32.85;23.20;;;;;;;;;;5072951;28;20056;-81
2023/04/29 14:34:35;;;;;;;34.67;25.25;;;;;;;;;;5070421;28;20017;-80
2023/04/29 14:37:01;;;;;;;35.60;25.15;;;;;;;;;;5072955;28;20080;-80
2023/04/29 14:39:27;;;;;;;37.67;25.63;;;;;;;;;;5071397;28;20028;-80
2023/04/29 14:41:53;;;;;;;37.40;26.52;;;;;;;;;;5071025;28;20275;-81